sensor_id;sensor_type;location;lat;lon;timestamp;pressure;altitude;pressure_sealevel;temperature;humidity
47330;BME280;33060;50.178;7.570;2023-02-19T00:01:37;97356.16;;;7.99;100.00
47330;BME280;33060;50.178;7.570;2023-02-19T00:04:06;97364.03;;;7.99;100.00
47330;BME280;33060;50.178;7.570;2023-02-19T00:06:34;97371.25;;;7.95;100.00
47330;BME280;33060;50.178;7.570;2023-02-19T00:09:02;97368.63;;;7.95;100.00
47330;BME280;33060;50.178;7.570;2023-02-19T00:11:31;97366.66;;;7.99;100.00
47330;BME280;33060;50.178;7.570;2023-02-19T00:14:00;97364.53;;;7.89;100.00
47330;BME280;33060;50.178;7.570;2023-02-19T00:16:32;97368.03;;;7.90;100.00
47330;BME280;33060;50.178;7.570;2023-02-19T00:19:01;97344.56;;;7.87;100.00
47330;BME280;33060;50.178;7.570;2023-02-19T00:21:29;97340.34;;;8.00;100.00
47330;BME280;33060;50.178;7.570;2023-02-19T00:23:58;97344.16;;;7.94;100.00
47330;BME280;33060;50.178;7.570;2023-02-19T00:26:26;97339.97;;;7.90;100.00
47330;BME280;33060;50.178;7.570;2023-02-19T00:28:54;97348.72;;;7.91;100.00
47330;BME280;33060;50.178;7.570;2023-02-19T00:31:24;97354.41;;;7.83;100.00
47330;BME280;33060;50.178;7.570;2023-02-19T00:33:53;97358.81;;;7.83;100.00
47330;BME280;33060;50.178;7.570;2023-02-19T00:36:21;97353.38;;;7.86;100.00
47330;BME280;33060;50.178;7.570;2023-02-19T00:38:49;97348.31;;;7.83;100.00
47330;BME280;33060;50.178;7.570;2023-02-19T00:41:17;97337.44;;;7.89;100.00
47330;BME280;33060;50.178;7.570;2023-02-19T00:43:50;97335.66;;;7.89;100.00
47330;BME280;33060;50.178;7.570;2023-02-19T00:46:27;97338.38;;;7.88;100.00
47330;BME280;33060;50.178;7.570;2023-02-19T00:48:55;97341.69;;;7.91;100.00
47330;BME280;33060;50.178;7.570;2023-02-19T00:51:24;97343.63;;;7.88;100.00
47330;BME280;33060;50.178;7.570;2023-02-19T00:53:51;97337.63;;;7.86;100.00
47330;BME280;33060;50.178;7.570;2023-02-19T00:56:18;97337.63;;;7.86;100.00
47330;BME280;33060;50.178;7.570;2023-02-19T00:58:46;97349.81;;;7.87;100.00
47330;BME280;33060;50.178;7.570;2023-02-19T01:01:13;97338.22;;;7.91;100.00
47330;BME280;33060;50.178;7.570;2023-02-19T01:03:39;97330.84;;;7.82;100.00
47330;BME280;33060;50.178;7.570;2023-02-19T01:06:08;97340.56;;;7.80;100.00
47330;BME280;33060;50.178;7.570;2023-02-19T01:08:36;97333.72;;;7.77;100.00
47330;BME280;33060;50.178;7.570;2023-02-19T01:11:04;97340.41;;;7.83;100.00
47330;BME280;33060;50.178;7.570;2023-02-19T01:13:32;97335.94;;;7.85;100.00
47330;BME280;33060;50.178;7.570;2023-02-19T01:16:05;97334.47;;;7.79;100.00
47330;BME280;33060;50.178;7.570;2023-02-19T01:18:33;97334.81;;;7.73;100.00
47330;BME280;33060;50.178;7.570;2023-02-19T01:21:06;97335.72;;;7.72;100.00
47330;BME280;33060;50.178;7.570;2023-02-19T01:23:34;97339.06;;;7.76;100.00
47330;BME280;33060;50.178;7.570;2023-02-19T01:26:06;97335.59;;;7.75;100.00
47330;BME280;33060;50.178;7.570;2023-02-19T01:28:34;97327.53;;;7.78;100.00
47330;BME280;33060;50.178;7.570;2023-02-19T01:31:06;97325.16;;;7.74;100.00
47330;BME280;33060;50.178;7.570;2023-02-19T01:33:33;97328.56;;;7.76;100.00
47330;BME280;33060;50.178;7.570;2023-02-19T01:36:04;97324.16;;;7.76;100.00
47330;BME280;33060;50.178;7.570;2023-02-19T01:38:31;97314.13;;;7.67;100.00
47330;BME280;33060;50.178;7.570;2023-02-19T01:41:02;97303.72;;;7.65;100.00
47330;BME280;33060;50.178;7.570;2023-02-19T01:43:34;97306.19;;;7.69;100.00
47330;BME280;33060;50.178;7.570;2023-02-19T01:46:19;97306.50;;;7.62;100.00
47330;BME280;33060;50.178;7.570;2023-02-19T01:48:46;97296.00;;;7.62;100.00
47330;BME280;33060;50.178;7.570;2023-02-19T01:51:16;97300.69;;;7.73;100.00
47330;BME280;33060;50.178;7.570;2023-02-19T01:53:47;97295.50;;;7.72;100.00
47330;BME280;33060;50.178;7.570;2023-02-19T01:56:17;97292.97;;;7.70;100.00
47330;BME280;33060;50.178;7.570;2023-02-19T01:58:45;97293.13;;;7.67;100.00
47330;BME280;33060;50.178;7.570;2023-02-19T02:01:12;97303.66;;;7.67;100.00
47330;BME280;33060;50.178;7.570;2023-02-19T02:03:40;97302.63;;;7.70;100.00
47330;BME280;33060;50.178;7.570;2023-02-19T02:06:23;97291.28;;;7.69;100.00
47330;BME280;33060;50.178;7.570;2023-02-19T02:08:52;97292.97;;;7.70;100.00
47330;BME280;33060;50.178;7.570;2023-02-19T02:11:42;97291.94;;;7.73;100.00
47330;BME280;33060;50.178;7.570;2023-02-19T02:14:10;97301.44;;;7.75;100.00
47330;BME280;33060;50.178;7.570;2023-02-19T02:16:47;97308.63;;;7.72;100.00
47330;BME280;33060;50.178;7.570;2023-02-19T02:19:30;97299.75;;;7.58;100.00
47330;BME280;33060;50.178;7.570;2023-02-19T02:22:18;97298.19;;;7.54;100.00
47330;BME280;33060;50.178;7.570;2023-02-19T02:30:26;97293.72;;;7.56;100.00
47330;BME280;33060;50.178;7.570;2023-02-19T02:35:32;97279.06;;;7.52;100.00
47330;BME280;33060;50.178;7.570;2023-02-19T02:38:04;97276.63;;;7.49;100.00
47330;BME280;33060;50.178;7.570;2023-02-19T02:40:32;97267.06;;;7.48;100.00
47330;BME280;33060;50.178;7.570;2023-02-19T02:43:00;97263.63;;;7.46;100.00
47330;BME280;33060;50.178;7.570;2023-02-19T02:45:30;97281.16;;;7.46;100.00
47330;BME280;33060;50.178;7.570;2023-02-19T02:50:59;97278.22;;;7.52;100.00
47330;BME280;33060;50.178;7.570;2023-02-19T02:53:52;97275.69;;;7.50;100.00
47330;BME280;33060;50.178;7.570;2023-02-19T02:56:39;97273.38;;;7.44;100.00
47330;BME280;33060;50.178;7.570;2023-02-19T02:59:09;97280.09;;;7.50;100.00
47330;BME280;33060;50.178;7.570;2023-02-19T03:01:45;97280.59;;;7.56;100.00
47330;BME280;33060;50.178;7.570;2023-02-19T03:04:49;97279.25;;;7.49;100.00
47330;BME280;33060;50.178;7.570;2023-02-19T03:10:19;97292.38;;;7.49;100.00
47330;BME280;33060;50.178;7.570;2023-02-19T03:12:49;97293.44;;;7.45;100.00
47330;BME280;33060;50.178;7.570;2023-02-19T03:15:41;97292.38;;;7.49;100.00
47330;BME280;33060;50.178;7.570;2023-02-19T03:18:29;97293.63;;;7.58;100.00
47330;BME280;33060;50.178;7.570;2023-02-19T03:21:20;97289.75;;;7.49;100.00
47330;BME280;33060;50.178;7.570;2023-02-19T03:23:47;97292.44;;;7.48;100.00
47330;BME280;33060;50.178;7.570;2023-02-19T03:26:36;97288.81;;;7.50;100.00
47330;BME280;33060;50.178;7.570;2023-02-19T03:29:04;97291.94;;;7.57;100.00
47330;BME280;33060;50.178;7.570;2023-02-19T03:32:07;97292.69;;;7.43;100.00
47330;BME280;33060;50.178;7.570;2023-02-19T03:34:37;97293.44;;;7.45;100.00
47330;BME280;33060;50.178;7.570;2023-02-19T03:37:24;97306.34;;;7.50;100.00
47330;BME280;33060;50.178;7.570;2023-02-19T03:39:52;97292.28;;;7.51;100.00
47330;BME280;33060;50.178;7.570;2023-02-19T03:47:53;97284.06;;;7.41;100.00
47330;BME280;33060;50.178;7.570;2023-02-19T03:50:27;97290.72;;;7.47;100.00
47330;BME280;33060;50.178;7.570;2023-02-19T03:53:26;97284.81;;;7.43;100.00
47330;BME280;33060;50.178;7.570;2023-02-19T04:01:11;97282.94;;;7.45;100.00
47330;BME280;33060;50.178;7.570;2023-02-19T04:03:51;97280.75;;;7.53;100.00
47330;BME280;33060;50.178;7.570;2023-02-19T04:06:24;97286.94;;;7.52;100.00
47330;BME280;33060;50.178;7.570;2023-02-19T04:08:54;97274.31;;;7.43;100.00
47330;BME280;33060;50.178;7.570;2023-02-19T04:11:23;97281.94;;;7.48;100.00
47330;BME280;33060;50.178;7.570;2023-02-19T04:14:26;97285.13;;;7.37;100.00
47330;BME280;33060;50.178;7.570;2023-02-19T04:16:58;97292.78;;;7.42;100.00
47330;BME280;33060;50.178;7.570;2023-02-19T04:19:26;97288.97;;;7.47;100.00
47330;BME280;33060;50.178;7.570;2023-02-19T04:21:55;97288.28;;;7.44;100.00
47330;BME280;33060;50.178;7.570;2023-02-19T04:24:27;97299.88;;;7.40;100.00
47330;BME280;33060;50.178;7.570;2023-02-19T04:26:56;97320.16;;;7.36;100.00
47330;BME280;33060;50.178;7.570;2023-02-19T04:29:23;97320.16;;;7.36;100.00
47330;BME280;33060;50.178;7.570;2023-02-19T04:31:49;97316.47;;;7.40;100.00
47330;BME280;33060;50.178;7.570;2023-02-19T04:34:16;97321.72;;;7.40;100.00
47330;BME280;33060;50.178;7.570;2023-02-19T04:36:43;97322.78;;;7.36;100.00
47330;BME280;33060;50.178;7.570;2023-02-19T04:39:10;97323.16;;;7.46;100.00
47330;BME280;33060;50.178;7.570;2023-02-19T04:41:36;97322.31;;;7.45;100.00
47330;BME280;33060;50.178;7.570;2023-02-19T04:44:03;97321.47;;;7.45;100.00
47330;BME280;33060;50.178;7.570;2023-02-19T04:46:30;97325.78;;;7.46;100.00
47330;BME280;33060;50.178;7.570;2023-02-19T04:48:56;97333.66;;;7.46;100.00
47330;BME280;33060;50.178;7.570;2023-02-19T04:51:23;97339.25;;;7.40;100.00
47330;BME280;33060;50.178;7.570;2023-02-19T04:53:50;97335.78;;;7.39;100.00
47330;BME280;33060;50.178;7.570;2023-02-19T04:56:17;97336.00;;;7.34;100.00
47330;BME280;33060;50.178;7.570;2023-02-19T04:58:44;97338.63;;;7.34;100.00
47330;BME280;33060;50.178;7.570;2023-02-19T05:01:11;97351.44;;;7.41;100.00
47330;BME280;33060;50.178;7.570;2023-02-19T05:03:39;97356.16;;;7.34;100.00
47330;BME280;33060;50.178;7.570;2023-02-19T05:06:08;97356.16;;;7.34;100.00
47330;BME280;33060;50.178;7.570;2023-02-19T05:08:36;97351.13;;;7.29;100.00
47330;BME280;33060;50.178;7.570;2023-02-19T05:11:05;97354.53;;;7.31;100.00
47330;BME280;33060;50.178;7.570;2023-02-19T05:13:32;97354.53;;;7.31;100.00
47330;BME280;33060;50.178;7.570;2023-02-19T05:16:10;97352.00;;;7.30;100.00
47330;BME280;33060;50.178;7.570;2023-02-19T05:18:43;97352.44;;;7.38;100.00
47330;BME280;33060;50.178;7.570;2023-02-19T05:21:10;97357.09;;;7.33;100.00
47330;BME280;33060;50.178;7.570;2023-02-19T05:23:37;97357.16;;;7.31;100.00
47330;BME280;33060;50.178;7.570;2023-02-19T05:26:12;97359.78;;;7.31;100.00
47330;BME280;33060;50.178;7.570;2023-02-19T05:28:46;97358.94;;;7.31;100.00
47330;BME280;33060;50.178;7.570;2023-02-19T05:31:14;97358.59;;;7.21;100.00
47330;BME280;33060;50.178;7.570;2023-02-19T05:33:41;97349.69;;;7.24;100.00
47330;BME280;33060;50.178;7.570;2023-02-19T05:36:11;97364.34;;;7.28;100.00
47330;BME280;33060;50.178;7.570;2023-02-19T05:38:39;97370.22;;;7.33;100.00
47330;BME280;33060;50.178;7.570;2023-02-19T05:41:19;97374.81;;;7.28;100.00
47330;BME280;33060;50.178;7.570;2023-02-19T05:43:47;97381.47;;;7.18;100.00
47330;BME280;33060;50.178;7.570;2023-02-19T05:46:16;97368.91;;;7.24;100.00
47330;BME280;33060;50.178;7.570;2023-02-19T05:48:43;97382.09;;;7.23;100.00
47330;BME280;33060;50.178;7.570;2023-02-19T05:51:12;97368.53;;;7.15;100.00
47330;BME280;33060;50.178;7.570;2023-02-19T05:53:40;97370.44;;;7.11;100.00
47330;BME280;33060;50.178;7.570;2023-02-19T05:58:54;97340.28;;;7.20;100.00
47330;BME280;33060;50.178;7.570;2023-02-19T06:01:23;97345.00;;;7.13;100.00
47330;BME280;33060;50.178;7.570;2023-02-19T06:03:51;97353.94;;;7.09;100.00
47330;BME280;33060;50.178;7.570;2023-02-19T06:06:19;97370.06;;;7.19;100.00
47330;BME280;33060;50.178;7.570;2023-02-19T06:08:49;97376.78;;;7.07;100.00
47330;BME280;33060;50.178;7.570;2023-02-19T06:11:17;97368.28;;;7.02;100.00
47330;BME280;33060;50.178;7.570;2023-02-19T06:13:44;97381.19;;;7.06;100.00
47330;BME280;33060;50.178;7.570;2023-02-19T06:16:11;97396.16;;;7.04;100.00
47330;BME280;33060;50.178;7.570;2023-02-19T06:18:38;97402.19;;;7.06;100.00
47330;BME280;33060;50.178;7.570;2023-02-19T06:21:09;97402.25;;;7.05;100.00
47330;BME280;33060;50.178;7.570;2023-02-19T06:23:37;97403.63;;;7.12;100.00
47330;BME280;33060;50.178;7.570;2023-02-19T06:26:10;97410.88;;;7.07;100.00
47330;BME280;33060;50.178;7.570;2023-02-19T06:28:38;97410.81;;;7.08;100.00
47330;BME280;33060;50.178;7.570;2023-02-19T06:31:06;97416.34;;;7.02;100.00
47330;BME280;33060;50.178;7.570;2023-02-19T06:33:34;97414.19;;;7.11;100.00
47330;BME280;33060;50.178;7.570;2023-02-19T06:36:03;97411.66;;;7.09;100.00
47330;BME280;33060;50.178;7.570;2023-02-19T06:38:29;97416.31;;;7.04;100.00
47330;BME280;33060;50.178;7.570;2023-02-19T06:41:00;97416.97;;;7.07;100.00
47330;BME280;33060;50.178;7.570;2023-02-19T06:43:27;97423.28;;;7.03;100.00
47330;BME280;33060;50.178;7.570;2023-02-19T06:45:57;97412.97;;;7.00;100.00
47330;BME280;33060;50.178;7.570;2023-02-19T06:48:25;97414.66;;;7.01;100.00
47330;BME280;33060;50.178;7.570;2023-02-19T06:50:52;97416.44;;;7.01;100.00
47330;BME280;33060;50.178;7.570;2023-02-19T06:53:18;97420.44;;;7.08;100.00
47330;BME280;33060;50.178;7.570;2023-02-19T06:55:56;97435.56;;;7.03;100.00
47330;BME280;33060;50.178;7.570;2023-02-19T06:58:23;97438.19;;;7.03;100.00
47330;BME280;33060;50.178;7.570;2023-02-19T07:00:49;97444.91;;;7.08;100.00
47330;BME280;33060;50.178;7.570;2023-02-19T07:03:16;97449.00;;;7.14;100.00
47330;BME280;33060;50.178;7.570;2023-02-19T07:05:43;97450.78;;;7.14;100.00
47330;BME280;33060;50.178;7.570;2023-02-19T07:08:09;97445.53;;;7.14;100.00
47330;BME280;33060;50.178;7.570;2023-02-19T07:10:36;97457.63;;;7.16;100.00
47330;BME280;33060;50.178;7.570;2023-02-19T07:13:03;97452.59;;;7.12;100.00
47330;BME280;33060;50.178;7.570;2023-02-19T07:15:29;97460.44;;;7.13;100.00
47330;BME280;33060;50.178;7.570;2023-02-19T07:17:56;97465.22;;;7.22;100.00
47330;BME280;33060;50.178;7.570;2023-02-19T07:20:23;97459.72;;;7.27;100.00
47330;BME280;33060;50.178;7.570;2023-02-19T07:22:49;97467.97;;;7.36;100.00
47330;BME280;33060;50.178;7.570;2023-02-19T07:25:16;97468.06;;;7.35;100.00
47330;BME280;33060;50.178;7.570;2023-02-19T07:27:42;97477.78;;;7.33;100.00
47330;BME280;33060;50.178;7.570;2023-02-19T07:30:09;97477.31;;;7.42;100.00
47330;BME280;33060;50.178;7.570;2023-02-19T07:32:40;97473.13;;;7.55;100.00
47330;BME280;33060;50.178;7.570;2023-02-19T07:35:06;97476.69;;;7.54;100.00
47330;BME280;33060;50.178;7.570;2023-02-19T07:37:33;97490.59;;;7.56;100.00
47330;BME280;33060;50.178;7.570;2023-02-19T07:40:00;97498.47;;;7.56;100.00
47330;BME280;33060;50.178;7.570;2023-02-19T07:42:27;97501.56;;;7.47;100.00
47330;BME280;33060;50.178;7.570;2023-02-19T07:44:53;97509.59;;;7.44;100.00
47330;BME280;33060;50.178;7.570;2023-02-19T07:47:20;97515.06;;;7.57;100.00
47330;BME280;33060;50.178;7.570;2023-02-19T07:49:46;97514.22;;;7.74;100.00
47330;BME280;33060;50.178;7.570;2023-02-19T07:52:13;97505.63;;;7.87;100.00
47330;BME280;33060;50.178;7.570;2023-02-19T07:54:40;97501.97;;;7.90;100.00
47330;BME280;33060;50.178;7.570;2023-02-19T07:57:06;97499.13;;;7.94;100.00
47330;BME280;33060;50.178;7.570;2023-02-19T07:59:33;97509.84;;;7.90;100.00
47330;BME280;33060;50.178;7.570;2023-02-19T08:02:00;97534.81;;;7.81;100.00
47330;BME280;33060;50.178;7.570;2023-02-19T08:04:48;97546.03;;;7.85;100.00
47330;BME280;33060;50.178;7.570;2023-02-19T08:07:14;97554.84;;;7.84;100.00
47330;BME280;33060;50.178;7.570;2023-02-19T08:09:41;97565.81;;;7.92;100.00
47330;BME280;33060;50.178;7.570;2023-02-19T08:12:09;97557.69;;;7.79;100.00
47330;BME280;33060;50.178;7.570;2023-02-19T08:14:55;97559.22;;;8.01;100.00
47330;BME280;33060;50.178;7.570;2023-02-19T08:17:22;97570.41;;;8.04;100.00
47330;BME280;33060;50.178;7.570;2023-02-19T08:19:48;97568.63;;;8.05;100.00
47330;BME280;33060;50.178;7.570;2023-02-19T08:22:15;97568.31;;;8.11;100.00
47330;BME280;33060;50.178;7.570;2023-02-19T08:24:42;97564.84;;;8.10;100.00
47330;BME280;33060;50.178;7.570;2023-02-19T08:27:10;97562.41;;;8.23;100.00
47330;BME280;33060;50.178;7.570;2023-02-19T08:29:37;97571.94;;;8.26;100.00
47330;BME280;33060;50.178;7.570;2023-02-19T08:32:03;97577.41;;;8.38;100.00
47330;BME280;33060;50.178;7.570;2023-02-19T08:34:30;97575.41;;;8.43;100.00
47330;BME280;33060;50.178;7.570;2023-02-19T08:36:57;97576.75;;;8.50;99.88
47330;BME280;33060;50.178;7.570;2023-02-19T08:39:23;97569.72;;;8.51;99.88
47330;BME280;33060;50.178;7.570;2023-02-19T08:41:50;97581.53;;;8.60;99.65
47330;BME280;33060;50.178;7.570;2023-02-19T08:44:16;97586.88;;;8.58;100.00
47330;BME280;33060;50.178;7.570;2023-02-19T08:46:43;97586.03;;;8.58;99.98
47330;BME280;33060;50.178;7.570;2023-02-19T08:49:10;97590.97;;;8.80;97.95
47330;BME280;33060;50.178;7.570;2023-02-19T08:51:36;97589.44;;;8.75;97.36
47330;BME280;33060;50.178;7.570;2023-02-19T08:54:03;97586.50;;;8.97;96.52
47330;BME280;33060;50.178;7.570;2023-02-19T08:56:29;97590.91;;;8.97;96.63
47330;BME280;33060;50.178;7.570;2023-02-19T08:58:56;97597.88;;;9.14;95.79
47330;BME280;33060;50.178;7.570;2023-02-19T09:01:23;97589.78;;;9.01;96.75
47330;BME280;33060;50.178;7.570;2023-02-19T09:03:49;97602.09;;;8.85;96.07
47330;BME280;33060;50.178;7.570;2023-02-19T09:06:20;97591.84;;;8.80;97.64
47330;BME280;33060;50.178;7.570;2023-02-19T09:08:47;97603.78;;;8.86;97.35
47330;BME280;33060;50.178;7.570;2023-02-19T09:11:14;97609.75;;;9.05;97.05
47330;BME280;33060;50.178;7.570;2023-02-19T09:13:41;97604.50;;;9.05;96.57
47330;BME280;33060;50.178;7.570;2023-02-19T09:16:09;97604.03;;;8.81;96.46
47330;BME280;33060;50.178;7.570;2023-02-19T09:18:36;97608.88;;;8.73;97.37
47330;BME280;33060;50.178;7.570;2023-02-19T09:21:04;97610.81;;;8.69;97.12
47330;BME280;33060;50.178;7.570;2023-02-19T09:23:32;97614.31;;;8.86;97.18
47330;BME280;33060;50.178;7.570;2023-02-19T09:26:00;97608.97;;;9.03;95.31
47330;BME280;33060;50.178;7.570;2023-02-19T09:28:27;97614.16;;;8.89;94.41
47330;BME280;33060;50.178;7.570;2023-02-19T09:30:53;97613.41;;;8.87;93.64
47330;BME280;33060;50.178;7.570;2023-02-19T09:33:20;97609.84;;;9.03;92.91
47330;BME280;33060;50.178;7.570;2023-02-19T09:35:47;97611.28;;;9.09;91.72
47330;BME280;33060;50.178;7.570;2023-02-19T09:38:13;97618.03;;;8.82;93.77
47330;BME280;33060;50.178;7.570;2023-02-19T09:40:40;97626.31;;;8.58;94.00
47330;BME280;33060;50.178;7.570;2023-02-19T09:43:14;97634.50;;;8.69;93.53
47330;BME280;33060;50.178;7.570;2023-02-19T09:45:42;97619.50;;;9.03;91.99
47330;BME280;33060;50.178;7.570;2023-02-19T09:48:10;97628.34;;;9.18;91.17
47330;BME280;33060;50.178;7.570;2023-02-19T09:50:43;97633.78;;;9.15;92.13
47330;BME280;33060;50.178;7.570;2023-02-19T09:53:17;97639.38;;;9.09;92.02
47330;BME280;33060;50.178;7.570;2023-02-19T09:55:45;97641.16;;;9.08;92.76
47330;BME280;33060;50.178;7.570;2023-02-19T10:00:54;97649.63;;;8.82;95.57
47330;BME280;33060;50.178;7.570;2023-02-19T10:03:25;97656.03;;;8.76;96.07
47330;BME280;33060;50.178;7.570;2023-02-19T10:06:09;97654.41;;;9.06;95.31
47330;BME280;33060;50.178;7.570;2023-02-19T10:08:39;97658.47;;;9.28;93.28
47330;BME280;33060;50.178;7.570;2023-02-19T10:11:06;97652.56;;;9.24;92.45
47330;BME280;33060;50.178;7.570;2023-02-19T10:13:46;97663.50;;;9.32;91.67
47330;BME280;33060;50.178;7.570;2023-02-19T10:16:17;97667.22;;;9.60;90.57
47330;BME280;33060;50.178;7.570;2023-02-19T10:18:45;97668.28;;;9.87;89.41
47330;BME280;33060;50.178;7.570;2023-02-19T10:21:18;97671.63;;;9.75;90.74
47330;BME280;33060;50.178;7.570;2023-02-19T10:23:48;97674.88;;;9.65;90.47
47330;BME280;33060;50.178;7.570;2023-02-19T10:26:16;97683.38;;;9.54;93.43
47330;BME280;33060;50.178;7.570;2023-02-19T10:28:42;97693.03;;;9.38;92.59
47330;BME280;33060;50.178;7.570;2023-02-19T10:31:18;97706.81;;;9.43;92.33
47330;BME280;33060;50.178;7.570;2023-02-19T10:33:56;97706.22;;;9.38;92.01
47330;BME280;33060;50.178;7.570;2023-02-19T10:36:32;97711.13;;;9.28;92.46
47330;BME280;33060;50.178;7.570;2023-02-19T10:39:18;97710.53;;;9.23;93.04
47330;BME280;33060;50.178;7.570;2023-02-19T10:41:49;97725.50;;;9.22;93.16
47330;BME280;33060;50.178;7.570;2023-02-19T10:44:24;97736.16;;;9.19;93.21
47330;BME280;33060;50.178;7.570;2023-02-19T10:46:56;97741.97;;;9.26;91.61
47330;BME280;33060;50.178;7.570;2023-02-19T10:49:30;97733.09;;;9.11;92.55
47330;BME280;33060;50.178;7.570;2023-02-19T10:52:25;97729.91;;;9.38;90.71
47330;BME280;33060;50.178;7.570;2023-02-19T10:55:23;97733.09;;;9.76;87.24
47330;BME280;33060;50.178;7.570;2023-02-19T10:57:51;97732.31;;;9.74;87.04
47330;BME280;33060;50.178;7.570;2023-02-19T11:00:21;97722.34;;;9.95;86.68
47330;BME280;33060;50.178;7.570;2023-02-19T11:03:11;97718.44;;;10.02;86.90
47330;BME280;33060;50.178;7.570;2023-02-19T11:05:37;97718.22;;;10.20;85.04
47330;BME280;33060;50.178;7.570;2023-02-19T11:08:20;97712.09;;;10.50;82.92
47330;BME280;33060;50.178;7.570;2023-02-19T11:10:47;97716.81;;;10.89;82.49
47330;BME280;33060;50.178;7.570;2023-02-19T11:13:24;97725.09;;;10.97;79.87
47330;BME280;33060;50.178;7.570;2023-02-19T11:15:53;97731.09;;;10.71;81.54
47330;BME280;33060;50.178;7.570;2023-02-19T11:18:23;97730.34;;;10.83;81.62
47330;BME280;33060;50.178;7.570;2023-02-19T11:20:54;97722.38;;;11.13;80.19
47330;BME280;33060;50.178;7.570;2023-02-19T11:23:29;97739.56;;;11.61;77.34
47330;BME280;33060;50.178;7.570;2023-02-19T11:26:05;97744.91;;;11.47;77.23
47330;BME280;33060;50.178;7.570;2023-02-19T11:28:35;97743.94;;;10.91;80.42
47330;BME280;33060;50.178;7.570;2023-02-19T11:31:21;97738.28;;;10.83;78.16
47330;BME280;33060;50.178;7.570;2023-02-19T11:33:58;97737.44;;;10.38;79.87
47330;BME280;33060;50.178;7.570;2023-02-19T11:36:33;97750.16;;;10.00;82.13
47330;BME280;33060;50.178;7.570;2023-02-19T11:42:03;97759.72;;;9.38;86.64
47330;BME280;33060;50.178;7.570;2023-02-19T11:47:43;97752.72;;;9.05;88.69
47330;BME280;33060;50.178;7.570;2023-02-19T11:50:29;97760.22;;;9.29;86.95
47330;BME280;33060;50.178;7.570;2023-02-19T11:56:04;97774.63;;;9.39;87.67
47330;BME280;33060;50.178;7.570;2023-02-19T12:01:53;97779.06;;;9.21;89.33
47330;BME280;33060;50.178;7.570;2023-02-19T12:05:03;97778.50;;;8.99;90.93
47330;BME280;33060;50.178;7.570;2023-02-19T12:07:52;97770.41;;;8.86;93.51
47330;BME280;33060;50.178;7.570;2023-02-19T12:13:15;97760.25;;;8.96;93.70
47330;BME280;33060;50.178;7.570;2023-02-19T12:16:15;97755.22;;;9.24;90.80
47330;BME280;33060;50.178;7.570;2023-02-19T12:35:38;97761.06;;;9.14;94.92
47330;BME280;33060;50.178;7.570;2023-02-19T12:38:31;97769.97;;;9.27;92.93
47330;BME280;33060;50.178;7.570;2023-02-19T12:44:40;97755.75;;;9.31;92.61
47330;BME280;33060;50.178;7.570;2023-02-19T12:47:16;97753.66;;;9.20;91.12
47330;BME280;33060;50.178;7.570;2023-02-19T12:49:49;97749.06;;;9.08;91.63
47330;BME280;33060;50.178;7.570;2023-02-19T12:52:24;97745.81;;;9.03;90.57
47330;BME280;33060;50.178;7.570;2023-02-19T12:54:54;97747.22;;;8.93;89.97
47330;BME280;33060;50.178;7.570;2023-02-19T12:57:28;97749.84;;;8.93;90.80
47330;BME280;33060;50.178;7.570;2023-02-19T13:00:02;97751.56;;;8.94;91.53
47330;BME280;33060;50.178;7.570;2023-02-19T13:02:40;97745.69;;;8.89;90.90
47330;BME280;33060;50.178;7.570;2023-02-19T13:05:18;97743.34;;;9.00;90.69
47330;BME280;33060;50.178;7.570;2023-02-19T13:07:50;97740.31;;;9.07;88.57
47330;BME280;33060;50.178;7.570;2023-02-19T13:10:43;97730.75;;;9.22;86.69
47330;BME280;33060;50.178;7.570;2023-02-19T13:13:45;97736.09;;;9.37;85.06
47330;BME280;33060;50.178;7.570;2023-02-19T13:16:17;97738.66;;;9.38;85.41
47330;BME280;33060;50.178;7.570;2023-02-19T13:18:47;97732.75;;;9.66;84.61
47330;BME280;33060;50.178;7.570;2023-02-19T13:21:17;97732.84;;;9.65;84.57
47330;BME280;33060;50.178;7.570;2023-02-19T13:24:14;97728.66;;;9.60;85.05
47330;BME280;33060;50.178;7.570;2023-02-19T13:37:24;97752.97;;;9.17;85.42
47330;BME280;33060;50.178;7.570;2023-02-19T13:39:53;97761.94;;;9.30;85.50
47330;BME280;33060;50.178;7.570;2023-02-19T13:42:31;97759.66;;;9.40;84.59
47330;BME280;33060;50.178;7.570;2023-02-19T13:45:00;97761.19;;;9.44;84.96
47330;BME280;33060;50.178;7.570;2023-02-19T13:47:47;97771.81;;;9.42;85.86
47330;BME280;33060;50.178;7.570;2023-02-19T13:50:30;97769.97;;;9.27;86.29
47330;BME280;33060;50.178;7.570;2023-02-19T13:59:34;97771.91;;;9.56;86.80
47330;BME280;33060;50.178;7.570;2023-02-19T14:04:44;97770.97;;;9.89;86.59
47330;BME280;33060;50.178;7.570;2023-02-19T14:07:18;97768.94;;;9.94;86.09
47330;BME280;33060;50.178;7.570;2023-02-19T14:09:45;97770.63;;;9.95;87.09
47330;BME280;33060;50.178;7.570;2023-02-19T14:14:44;97773.00;;;9.68;86.37
47330;BME280;33060;50.178;7.570;2023-02-19T14:17:42;97770.56;;;9.65;86.75
47330;BME280;33060;50.178;7.570;2023-02-19T14:30:52;97781.88;;;9.83;83.47
47330;BME280;33060;50.178;7.570;2023-02-19T14:33:28;97780.75;;;9.71;84.56
47330;BME280;33060;50.178;7.570;2023-02-19T14:38:42;97778.88;;;9.57;84.65
47330;BME280;33060;50.178;7.570;2023-02-19T14:41:12;97785.84;;;9.58;84.81
47330;BME280;33060;50.178;7.570;2023-02-19T14:43:41;97801.97;;;9.52;85.78
47330;BME280;33060;50.178;7.570;2023-02-19T14:46:17;97815.91;;;9.54;85.99
47330;BME280;33060;50.178;7.570;2023-02-19T14:48:48;97818.78;;;9.50;85.69
47330;BME280;33060;50.178;7.570;2023-02-19T14:51:27;97815.34;;;9.32;87.24
47330;BME280;33060;50.178;7.570;2023-02-19T14:53:56;97817.84;;;9.18;87.04
47330;BME280;33060;50.178;7.570;2023-02-19T14:56:27;97822.28;;;9.00;87.89
47330;BME280;33060;50.178;7.570;2023-02-19T15:01:37;97817.59;;;8.72;89.33
47330;BME280;33060;50.178;7.570;2023-02-19T15:04:05;97817.81;;;8.67;90.83
47330;BME280;33060;50.178;7.570;2023-02-19T15:06:35;97809.78;;;8.70;89.86
47330;BME280;33060;50.178;7.570;2023-02-19T15:09:04;97811.94;;;8.80;89.86
47330;BME280;33060;50.178;7.570;2023-02-19T15:11:31;97828.31;;;8.85;89.79
47330;BME280;33060;50.178;7.570;2023-02-19T15:14:05;97830.44;;;8.78;89.01